Time;durP1;ratioP1;P1;durP2;ratioP2;P2;SDS_P1;SDS_P2;PMS_P1;PMS_P2;Temp;Humidity;BMP_temperature;BMP_pressure;BME280_temperature;BME280_humidity;BME280_pressure;Samples;Min_cycle;Max_cycle;Signal;HPM_P1;HPM_P2
2022/07/23 00:00:25;;;;;;;9.90;8.60;;;;;;;19.51;65.07;100171.64;130090;1271;108871;-76
2022/07/23 00:03:41;;;;;;;9.20;8.30;;;;;;;19.48;65.22;100175.11;130115;1271;108876;-76
2022/07/23 00:06:47;;;;;;;9.00;8.10;;;;;;;19.33;65.29;100181.69;130104;1271;108855;-74
2022/07/23 00:09:52;;;;;;;9.10;8.20;;;;;;;19.29;65.53;100183.86;130146;1271;108837;-75
2022/07/23 00:12:58;;;;;;;9.70;8.80;;;;;;;19.32;65.44;100182.77;130177;1271;108704;-75
2022/07/23 00:16:04;;;;;;;10.60;9.50;;;;;;;19.34;65.72;100187.42;130050;1270;108754;-74
2022/07/23 00:19:09;;;;;;;11.10;9.30;;;;;;;19.30;65.56;100187.40;130094;1271;107783;-75
2022/07/23 00:22:15;;;;;;;10.70;9.60;;;;;;;19.29;65.78;100191.44;130098;1271;109021;-75
2022/07/23 00:25:20;;;;;;;9.90;8.90;;;;;;;19.24;65.67;100192.16;130066;1271;108732;-75
2022/07/23 00:28:25;;;;;;;9.70;8.70;;;;;;;19.19;65.77;100193.50;130054;1271;108847;-77
2022/07/23 00:31:31;;;;;;;10.20;8.70;;;;;;;19.18;65.82;100191.55;130032;1271;109019;-76
2022/07/23 00:34:36;;;;;;;9.70;8.80;;;;;;;19.16;65.93;100193.79;130096;1270;108906;-76
2022/07/23 00:37:42;;;;;;;10.80;9.30;;;;;;;19.16;65.95;100191.97;130165;1271;107600;-76
2022/07/23 00:40:47;;;;;;;10.70;9.60;;;;;;;19.14;65.95;100194.27;130142;1271;109126;-74
2022/07/23 00:43:52;;;;;;;10.70;9.60;;;;;;;19.11;66.05;100198.55;130103;1270;108731;-77
2022/07/23 00:47:00;;;;;;;10.40;9.40;;;;;;;19.09;66.20;100196.40;130094;1271;108961;-77
2022/07/23 00:50:09;;;;;;;9.90;8.70;;;;;;;19.06;66.09;100196.48;130081;1271;108750;-79
2022/07/23 00:53:15;;;;;;;9.80;8.90;;;;;;;18.93;66.29;100193.48;129910;1270;108589;-79
2022/07/23 00:56:21;;;;;;;9.70;7.90;;;;;;;18.84;66.32;100192.59;130025;1271;107826;-77
2022/07/23 00:59:26;;;;;;;10.00;8.70;;;;;;;18.80;66.48;100196.12;130042;1269;108790;-73
2022/07/23 01:02:31;;;;;;;9.60;8.70;;;;;;;18.83;66.55;100195.41;130220;1271;108705;-73
2022/07/23 01:05:37;;;;;;;10.20;9.10;;;;;;;18.83;66.59;100193.50;130132;1271;109023;-74
2022/07/23 01:08:43;;;;;;;9.80;8.80;;;;;;;18.82;66.70;100193.75;130146;1271;108241;-77
2022/07/23 01:11:49;;;;;;;10.70;9.30;;;;;;;18.77;66.75;100196.22;130142;1271;108610;-76
2022/07/23 01:14:58;;;;;;;11.10;9.90;;;;;;;18.74;66.66;100192.27;129978;1271;107526;-77
2022/07/23 01:18:06;;;;;;;10.60;8.60;;;;;;;18.68;66.87;100195.84;130094;1271;108741;-72
2022/07/23 01:21:14;;;;;;;9.80;8.40;;;;;;;18.64;66.95;100191.98;130110;1271;107841;-77
2022/07/23 01:24:20;;;;;;;10.30;8.40;;;;;;;18.63;67.15;100195.45;130161;1271;108753;-77
2022/07/23 01:27:53;;;;;;;9.90;8.90;;;;;;;18.66;67.25;100198.08;129936;1271;109867;-77
2022/07/23 01:30:59;;;;;;;9.70;8.70;;;;;;;18.70;67.33;100191.73;130069;1271;109000;-75
2022/07/23 01:34:08;;;;;;;13.30;9.40;;;;;;;18.73;67.24;100194.30;129938;1271;109003;-75
2022/07/23 01:37:15;;;;;;;10.20;9.20;;;;;;;18.75;67.33;100190.69;129971;1271;109074;-75
2022/07/23 01:40:20;;;;;;;10.80;9.70;;;;;;;18.71;67.40;100186.11;130093;1271;108770;-74
2022/07/23 01:43:26;;;;;;;9.50;8.50;;;;;;;18.61;67.32;100179.55;130086;1271;108710;-75
2022/07/23 01:46:31;;;;;;;9.70;8.40;;;;;;;18.55;67.61;100183.71;129924;1271;108758;-73
2022/07/23 01:49:37;;;;;;;9.50;8.50;;;;;;;18.54;67.70;100189.52;130020;1271;108701;-73
2022/07/23 01:53:22;;;;;;;10.10;9.10;;;;;;;18.58;67.74;100193.64;129527;1275;108739;-74
2022/07/23 01:56:27;;;;;;;10.90;9.80;;;;;;;18.59;67.77;100187.48;129455;1277;109008;-73
2022/07/23 01:59:33;;;;;;;11.00;9.30;;;;;;;18.58;67.82;100188.86;129924;1271;108668;-74
2022/07/23 02:02:38;;;;;;;11.00;9.90;;;;;;;18.52;67.82;100185.11;129952;1271;108957;-74
2022/07/23 02:05:44;;;;;;;11.70;9.60;;;;;;;18.48;68.06;100183.15;130023;1271;109687;-74
2022/07/23 02:08:49;;;;;;;11.00;9.60;;;;;;;18.44;68.05;100180.03;129892;1271;108725;-73
2022/07/23 02:11:59;;;;;;;9.60;8.70;;;;;;;18.44;68.19;100181.11;129968;1271;108947;-72
2022/07/23 02:15:07;;;;;;;9.50;8.60;;;;;;;18.43;68.23;100176.20;129960;1271;108926;-72
2022/07/23 02:18:12;;;;;;;11.60;9.80;;;;;;;18.42;68.27;100168.11;129919;1271;108758;-71
2022/07/23 02:21:17;;;;;;;10.00;9.00;;;;;;;18.35;68.29;100168.84;129988;1270;109013;-71
2022/07/23 02:24:23;;;;;;;12.90;9.80;;;;;;;18.31;68.40;100165.60;129932;1271;108874;-70
2022/07/23 02:27:29;;;;;;;11.50;9.30;;;;;;;18.29;68.46;100164.30;129863;1271;109673;-71
2022/07/23 02:30:35;;;;;;;11.70;10.30;;;;;;;18.27;68.66;100169.58;129833;1271;108704;-71
2022/07/23 02:33:40;;;;;;;11.90;9.10;;;;;;;18.24;68.69;100171.56;129788;1271;109414;-71
2022/07/23 02:36:46;;;;;;;10.40;9.20;;;;;;;18.22;68.82;100174.67;129933;1271;109074;-70
2022/07/23 02:39:51;;;;;;;10.40;9.40;;;;;;;18.22;68.84;100174.56;129922;1271;108640;-71
2022/07/23 02:42:58;;;;;;;11.40;10.20;;;;;;;18.23;68.94;100178.26;129907;1271;108958;-72
2022/07/23 02:46:03;;;;;;;10.70;9.70;;;;;;;18.25;68.99;100177.77;130129;1271;108998;-71
2022/07/23 02:49:09;;;;;;;15.50;11.00;;;;;;;18.27;69.01;100180.39;130106;1271;108959;-72
2022/07/23 02:52:15;;;;;;;12.50;10.70;;;;;;;18.30;69.23;100185.25;130131;1271;108108;-71
2022/07/23 02:55:21;;;;;;;12.80;11.50;;;;;;;18.33;69.31;100185.52;130049;1271;109216;-73
2022/07/23 02:58:27;;;;;;;13.00;11.00;;;;;;;18.35;69.27;100185.09;129939;1271;108662;-75
2022/07/23 03:01:32;;;;;;;10.80;9.70;;;;;;;18.32;69.32;100186.05;129981;1271;108856;-75
2022/07/23 03:04:38;;;;;;;12.80;10.80;;;;;;;18.35;69.39;100183.77;129970;1271;108858;-76
2022/07/23 03:07:44;;;;;;;12.60;11.20;;;;;;;18.41;69.46;100185.27;130024;1271;109047;-75
2022/07/23 03:10:49;;;;;;;12.20;11.00;;;;;;;18.44;69.53;100185.39;130099;1271;108755;-72
2022/07/23 03:13:55;;;;;;;14.40;12.80;;;;;;;18.46;69.64;100180.57;129835;1271;108647;-72
2022/07/23 03:17:00;;;;;;;12.20;11.00;;;;;;;18.52;69.67;100185.60;129963;1271;108798;-72
2022/07/23 03:20:09;;;;;;;13.30;11.90;;;;;;;18.57;69.75;100187.85;130137;1271;109181;-75
2022/07/23 03:23:14;;;;;;;12.70;11.30;;;;;;;18.60;69.85;100189.45;130049;1271;108743;-75
2022/07/23 03:26:19;;;;;;;12.80;11.40;;;;;;;18.64;69.83;100189.27;129873;1271;107747;-75
2022/07/23 03:29:25;;;;;;;13.20;11.80;;;;;;;18.69;70.09;100188.20;129980;1271;108842;-74
2022/07/23 03:32:31;;;;;;;12.80;11.50;;;;;;;18.78;70.10;100188.98;130047;1271;108868;-76
2022/07/23 03:35:37;;;;;;;14.30;12.80;;;;;;;18.86;70.19;100186.13;130118;1271;108824;-74
2022/07/23 03:39:04;;;;;;;12.50;11.10;;;;;;;18.97;70.23;100184.96;130094;1271;108656;-73
2022/07/23 03:42:09;;;;;;;14.30;12.10;;;;;;;19.03;70.22;100187.66;129948;1271;108850;-73
2022/07/23 03:45:15;;;;;;;12.70;10.60;;;;;;;19.11;70.42;100182.57;129991;1271;108758;-74
2022/07/23 03:48:21;;;;;;;11.70;10.40;;;;;;;19.31;70.10;100185.81;129943;1271;108667;-72
2022/07/23 03:51:27;;;;;;;12.20;11.00;;;;;;;19.48;70.01;100187.76;129974;1271;108989;-72
2022/07/23 03:54:32;;;;;;;11.30;10.10;;;;;;;19.69;69.92;100183.98;129943;1271;108858;-71
2022/07/23 03:57:38;;;;;;;12.40;11.10;;;;;;;19.92;69.80;100178.78;129990;1271;108780;-72
2022/07/23 04:00:43;;;;;;;12.20;11.00;;;;;;;20.12;69.71;100175.41;129942;1271;108963;-72
2022/07/23 04:03:48;;;;;;;12.80;11.40;;;;;;;20.35;69.59;100173.59;129911;1271;108783;-71
2022/07/23 04:06:54;;;;;;;11.90;10.60;;;;;;;20.55;69.53;100174.13;129960;1271;109612;-72
2022/07/23 04:10:00;;;;;;;11.00;9.90;;;;;;;20.76;69.46;100168.95;129923;1271;108592;-75
2022/07/23 04:13:06;;;;;;;11.20;9.90;;;;;;;21.02;69.34;100171.05;129877;1271;107718;-76
2022/07/23 04:16:12;;;;;;;11.60;10.30;;;;;;;21.31;69.10;100170.16;130090;1271;108836;-75
2022/07/23 04:19:17;;;;;;;12.10;10.90;;;;;;;21.62;68.92;100169.29;130049;1271;108096;-74
2022/07/23 04:22:33;;;;;;;12.20;11.00;;;;;;;21.90;68.81;100172.23;130160;1271;108753;-74
2022/07/23 04:25:38;;;;;;;12.00;10.80;;;;;;;22.13;68.73;100174.25;130034;1271;109001;-76
2022/07/23 04:28:44;;;;;;;13.60;12.20;;;;;;;22.36;68.48;100172.27;129936;1271;108914;-77
2022/07/23 04:31:50;;;;;;;12.80;11.50;;;;;;;22.55;68.50;100172.16;129970;1271;108793;-77
2022/07/23 04:34:56;;;;;;;14.50;12.40;;;;;;;22.73;68.42;100169.86;130053;1271;109185;-76
2022/07/23 04:38:02;;;;;;;15.80;13.40;;;;;;;22.86;68.23;100169.80;129969;1271;108877;-75
2022/07/23 04:41:08;;;;;;;13.70;11.60;;;;;;;22.92;68.18;100173.22;129889;1270;108878;-74
2022/07/23 04:44:13;;;;;;;17.10;15.20;;;;;;;22.97;67.98;100173.88;129880;1271;108668;-77
2022/07/23 04:47:18;;;;;;;17.30;15.40;;;;;;;22.97;67.69;100166.67;129933;1271;108169;-80
2022/07/23 04:50:24;;;;;;;16.80;15.20;;;;;;;22.97;67.72;100165.69;130006;1271;108876;-77
2022/07/23 04:53:31;;;;;;;17.20;15.40;;;;;;;22.95;67.54;100166.84;129939;1271;108823;-76
2022/07/23 04:56:39;;;;;;;17.30;15.50;;;;;;;22.88;67.52;100155.88;129940;1270;109111;-77
2022/07/23 04:59:45;;;;;;;17.70;15.80;;;;;;;22.91;67.63;100154.73;130007;1271;108694;-71
2022/07/23 05:02:51;;;;;;;15.80;14.20;;;;;;;22.91;67.66;100159.13;129987;1271;108761;-72
2022/07/23 05:05:56;;;;;;;16.60;14.90;;;;;;;22.95;67.28;100161.14;130004;1271;108671;-78
2022/07/23 05:09:02;;;;;;;15.40;13.70;;;;;;;22.93;67.11;100163.31;129936;1271;108737;-76
2022/07/23 05:12:09;;;;;;;16.40;14.80;;;;;;;23.01;67.20;100167.01;129936;1271;107675;-72
2022/07/23 05:15:15;;;;;;;16.90;15.10;;;;;;;23.18;67.17;100170.35;129966;1271;108755;-72
2022/07/23 05:18:20;;;;;;;16.20;14.60;;;;;;;23.25;66.64;100165.31;130001;1271;108736;-76
2022/07/23 05:21:26;;;;;;;16.90;15.20;;;;;;;23.27;66.93;100163.45;129957;1271;108945;-76
2022/07/23 05:24:31;;;;;;;16.30;14.60;;;;;;;23.48;66.81;100166.90;129986;1271;107836;-81
2022/07/23 05:27:37;;;;;;;16.20;14.40;;;;;;;23.69;66.86;100166.56;129905;1271;109019;-72
2022/07/23 05:30:42;;;;;;;16.00;14.40;;;;;;;23.93;66.41;100163.98;129878;1271;109019;-73
2022/07/23 05:33:51;;;;;;;16.00;14.20;;;;;;;23.94;66.03;100161.90;129970;1271;108917;-70
2022/07/23 05:36:56;;;;;;;16.70;15.00;;;;;;;23.99;66.01;100159.20;129945;1271;108778;-72
2022/07/23 05:40:06;;;;;;;17.60;13.70;;;;;;;24.00;65.71;100162.15;129915;1271;109138;-71
2022/07/23 05:43:11;;;;;;;15.10;13.70;;;;;;;24.04;65.91;100163.54;130057;1271;108669;-72
2022/07/23 05:46:17;;;;;;;15.40;13.40;;;;;;;24.10;65.50;100159.14;130113;1271;108560;-73
2022/07/23 05:49:26;;;;;;;14.40;13.10;;;;;;;24.09;65.28;100161.79;130040;1271;107641;-72
2022/07/23 05:52:54;;;;;;;14.30;12.70;;;;;;;24.02;65.40;100165.79;130073;1271;108692;-72
2022/07/23 05:55:59;;;;;;;13.40;11.50;;;;;;;24.07;65.59;100159.69;130143;1271;108929;-72
2022/07/23 05:59:05;;;;;;;15.20;13.60;;;;;;;24.29;65.19;100163.00;129940;1271;108633;-73
2022/07/23 06:02:13;;;;;;;13.50;12.10;;;;;;;24.34;64.71;100155.06;129981;1271;108803;-72
2022/07/23 06:05:19;;;;;;;13.90;12.30;;;;;;;24.44;65.01;100156.01;129934;1271;108538;-72
2022/07/23 06:08:25;;;;;;;13.30;12.00;;;;;;;24.54;64.27;100152.66;130097;1271;109128;-72
2022/07/23 06:11:31;;;;;;;13.30;12.00;;;;;;;24.58;64.52;100154.42;130111;1271;108776;-73
2022/07/23 06:14:37;;;;;;;13.30;11.90;;;;;;;24.69;64.27;100152.47;129987;1271;108850;-72
2022/07/23 06:17:42;;;;;;;12.90;11.60;;;;;;;24.79;64.14;100147.48;129935;1271;108883;-71
2022/07/23 06:20:47;;;;;;;13.80;11.20;;;;;;;24.87;64.03;100147.27;129926;1271;108732;-78
2022/07/23 06:23:53;;;;;;;13.90;11.40;;;;;;;24.94;64.27;100146.12;129960;1271;108880;-71
2022/07/23 06:26:58;;;;;;;13.10;11.80;;;;;;;25.02;64.13;100148.59;129875;1271;108716;-70
2022/07/23 06:30:05;;;;;;;13.10;11.80;;;;;;;25.05;63.11;100146.31;130019;1271;107631;-72
2022/07/23 06:33:12;;;;;;;12.20;10.80;;;;;;;25.01;62.64;100144.91;129900;1271;108938;-73
2022/07/23 06:36:17;;;;;;;12.10;10.80;;;;;;;25.05;63.36;100138.67;130034;1271;108715;-74
2022/07/23 06:39:23;;;;;;;12.80;11.60;;;;;;;25.15;63.34;100138.49;129982;1271;108717;-71
2022/07/23 06:42:28;;;;;;;13.00;11.90;;;;;;;25.24;62.94;100136.51;129923;1271;108994;-71
2022/07/23 06:45:36;;;;;;;12.80;11.60;;;;;;;25.32;62.68;100135.91;129934;1271;108850;-70
2022/07/23 06:48:42;;;;;;;13.50;12.20;;;;;;;25.41;62.57;100135.53;129765;1271;109611;-71
2022/07/23 06:51:47;;;;;;;12.20;10.90;;;;;;;25.46;61.96;100128.05;130165;1270;108952;-71
2022/07/23 06:54:53;;;;;;;12.00;10.90;;;;;;;25.51;61.78;100121.82;130188;1270;108262;-71
2022/07/23 06:57:58;;;;;;;10.90;9.50;;;;;;;25.58;61.82;100114.85;130055;1271;108758;-71
2022/07/23 07:01:03;;;;;;;9.70;8.80;;;;;;;25.60;59.64;100117.39;130047;1271;107295;-71
2022/07/23 07:04:09;;;;;;;8.70;8.00;;;;;;;25.62;60.65;100116.98;130064;1271;108863;-71
2022/07/23 07:07:14;;;;;;;9.50;8.50;;;;;;;25.66;59.97;100118.06;130107;1269;108777;-71
2022/07/23 07:10:20;;;;;;;10.20;9.00;;;;;;;25.70;59.33;100114.11;130077;1269;108988;-71
2022/07/23 07:13:26;;;;;;;10.00;8.70;;;;;;;25.75;59.46;100114.98;130127;1271;108764;-73
2022/07/23 07:16:31;;;;;;;9.80;8.80;;;;;;;25.83;59.53;100118.13;130480;1270;108985;-75
2022/07/23 07:19:36;;;;;;;9.70;8.70;;;;;;;25.91;59.47;100114.51;130159;1271;109597;-73
2022/07/23 07:22:42;;;;;;;9.40;8.50;;;;;;;25.99;59.45;100118.38;130306;1270;108928;-73
2022/07/23 07:25:47;;;;;;;8.60;7.80;;;;;;;26.09;59.08;100125.73;130192;1270;108669;-73
2022/07/23 07:28:53;;;;;;;8.10;7.30;;;;;;;26.20;58.68;100126.17;130263;1271;107686;-72
2022/07/23 07:31:58;;;;;;;8.30;7.60;;;;;;;26.28;58.27;100124.49;130245;1271;108696;-73
2022/07/23 07:35:04;;;;;;;9.20;8.40;;;;;;;26.35;58.00;100118.69;130179;1271;108911;-73
2022/07/23 07:38:09;;;;;;;9.90;9.00;;;;;;;26.43;58.31;100118.37;130120;1270;108617;-71
2022/07/23 07:41:15;;;;;;;9.80;8.90;;;;;;;26.54;58.18;100118.60;129990;1271;108885;-71
2022/07/23 07:44:21;;;;;;;9.50;8.60;;;;;;;26.61;57.84;100115.48;130221;1271;109634;-72
2022/07/23 07:47:26;;;;;;;9.30;8.50;;;;;;;26.68;57.57;100113.60;130189;1271;109844;-70
2022/07/23 07:50:31;;;;;;;9.20;8.40;;;;;;;26.77;57.45;100114.20;130100;1271;108660;-71
2022/07/23 07:53:37;;;;;;;10.30;9.30;;;;;;;26.86;56.94;100115.08;130136;1270;109155;-70
2022/07/23 07:56:42;;;;;;;11.00;8.90;;;;;;;26.91;55.65;100120.64;129970;1271;109743;-71
2022/07/23 07:59:47;;;;;;;9.50;8.60;;;;;;;26.97;56.53;100122.77;129925;1271;108862;-70
2022/07/23 08:02:55;;;;;;;10.00;9.10;;;;;;;27.06;56.79;100123.61;129982;1271;109491;-71
2022/07/23 08:06:00;;;;;;;9.40;8.50;;;;;;;27.16;55.94;100127.17;130178;1270;109445;-71
2022/07/23 08:09:05;;;;;;;9.40;8.50;;;;;;;27.21;55.24;100129.39;130182;1271;109014;-70
2022/07/23 08:12:11;;;;;;;8.90;7.70;;;;;;;27.23;54.12;100134.61;130022;1271;108945;-71
2022/07/23 08:15:20;;;;;;;9.10;7.80;;;;;;;27.28;54.54;100130.27;130242;1271;108951;-72
2022/07/23 08:18:25;;;;;;;8.50;7.70;;;;;;;27.27;54.78;100137.19;130144;1271;108938;-71
2022/07/23 08:21:30;;;;;;;8.60;7.80;;;;;;;27.32;55.00;100136.44;130221;1271;107269;-71
2022/07/23 08:24:36;;;;;;;10.20;8.90;;;;;;;27.35;54.04;100138.64;130209;1271;108916;-71
2022/07/23 08:27:41;;;;;;;9.10;8.20;;;;;;;27.28;53.84;100140.96;130525;1271;109098;-71
2022/07/23 08:30:47;;;;;;;8.60;7.90;;;;;;;27.24;53.89;100141.70;130403;1271;108968;-71
2022/07/23 08:33:54;;;;;;;8.80;8.00;;;;;;;27.27;54.41;100134.92;131050;1270;109684;-71
2022/07/23 08:36:59;;;;;;;9.80;8.70;;;;;;;27.34;53.92;100134.47;130286;1271;107027;-72
2022/07/23 08:40:05;;;;;;;9.90;9.10;;;;;;;27.36;54.01;100129.05;130229;1271;109718;-72
2022/07/23 08:43:14;;;;;;;9.50;8.60;;;;;;;27.45;53.57;100132.71;130388;1271;107161;-72
2022/07/23 08:46:21;;;;;;;9.30;8.30;;;;;;;27.47;52.50;100133.54;130638;1270;108809;-71
2022/07/23 08:49:27;;;;;;;9.20;8.30;;;;;;;27.47;51.49;100132.66;130140;1271;109025;-71
2022/07/23 08:52:33;;;;;;;9.60;8.70;;;;;;;27.51;51.62;100129.40;130209;1271;108830;-71
2022/07/23 08:55:39;;;;;;;8.90;8.20;;;;;;;27.58;51.58;100129.19;130164;1271;108448;-71
2022/07/23 08:58:44;;;;;;;9.00;8.20;;;;;;;27.68;51.03;100125.88;130176;1271;108920;-72
2022/07/23 09:01:50;;;;;;;8.30;7.50;;;;;;;27.80;52.08;100115.27;130565;1271;107702;-72
2022/07/23 09:04:55;;;;;;;10.30;7.50;;;;;;;27.95;51.68;100111.54;130270;1271;108817;-71
2022/07/23 09:08:12;;;;;;;8.30;7.50;;;;;;;28.09;51.01;100107.27;130268;1271;108753;-72
2022/07/23 09:11:19;;;;;;;8.50;7.80;;;;;;;28.16;50.34;100106.35;131806;1271;108153;-72
2022/07/23 09:14:40;;;;;;;7.50;6.80;;;;;;;28.27;51.01;100098.01;130550;1271;108808;-71
2022/07/23 09:17:45;;;;;;;8.00;7.10;;;;;;;28.35;48.84;100098.72;130026;1271;107612;-72
2022/07/23 09:20:57;;;;;;;8.00;7.30;;;;;;;28.34;48.59;100092.78;130131;1271;108833;-72
2022/07/23 09:24:04;;;;;;;8.00;7.10;;;;;;;28.39;48.85;100087.41;130166;1271;107000;-72
2022/07/23 09:27:10;;;;;;;7.90;7.20;;;;;;;28.45;48.14;100083.13;130104;1270;108818;-72
2022/07/23 09:30:15;;;;;;;7.80;7.10;;;;;;;28.48;47.72;100083.28;130065;1271;108997;-71
2022/07/23 09:33:22;;;;;;;7.80;7.10;;;;;;;28.52;48.11;100080.82;130017;1271;108754;-72
2022/07/23 09:36:31;;;;;;;8.10;7.10;;;;;;;28.54;46.40;100079.35;130074;1271;108938;-72
2022/07/23 09:39:37;;;;;;;7.10;6.40;;;;;;;28.58;47.97;100073.20;129950;1271;107264;-73
2022/07/23 09:42:55;;;;;;;8.10;7.30;;;;;;;28.65;45.57;100071.38;130267;1271;107798;-74
2022/07/23 09:46:19;;;;;;;7.50;6.80;;;;;;;28.68;47.54;100067.42;130200;1271;108780;-72
2022/07/23 09:49:25;;;;;;;7.60;6.90;;;;;;;28.78;47.28;100064.96;130318;1271;108368;-73
2022/07/23 09:52:32;;;;;;;7.20;6.60;;;;;;;28.95;47.81;100063.98;130170;1271;254673;-72
2022/07/23 09:55:39;;;;;;;13.30;7.00;;;;;;;29.13;47.46;100059.96;130174;1271;109862;-73
2022/07/23 09:58:48;;;;;;;7.70;6.90;;;;;;;29.33;47.08;100058.52;130130;1271;109009;-72
2022/07/23 10:01:56;;;;;;;8.50;7.30;;;;;;;29.43;46.50;100051.70;130173;1271;108722;-73
2022/07/23 10:05:03;;;;;;;7.90;7.00;;;;;;;29.36;44.97;100058.29;130511;1271;109010;-73
2022/07/23 10:08:26;;;;;;;8.60;7.50;;;;;;;29.25;46.05;100056.80;130056;1271;107743;-73
2022/07/23 10:12:05;;;;;;;7.80;7.10;;;;;;;29.41;45.73;100055.98;130159;1271;108670;-73
2022/07/23 10:15:19;;;;;;;8.00;7.20;;;;;;;29.65;45.82;100049.73;129943;1273;108775;-71
2022/07/23 10:18:24;;;;;;;8.10;7.30;;;;;;;29.81;44.46;100044.27;130300;1271;109042;-72
2022/07/23 10:21:41;;;;;;;8.10;6.80;;;;;;;29.85;44.76;100047.16;130275;1271;108773;-73
2022/07/23 10:24:59;;;;;;;7.80;7.00;;;;;;;29.90;45.07;100037.11;130063;1271;108722;-72
2022/07/23 10:28:32;;;;;;;7.10;6.50;;;;;;;29.95;44.95;100030.36;130065;1271;109735;-72
2022/07/23 10:31:51;;;;;;;7.20;6.50;;;;;;;30.01;45.05;100035.53;130058;1271;108214;-73
2022/07/23 10:35:08;;;;;;;8.00;7.30;;;;;;;30.06;44.43;100033.89;130687;1271;109262;-71
2022/07/23 10:38:21;;;;;;;7.80;7.10;;;;;;;30.02;44.84;100030.40;129807;1271;108672;-72
2022/07/23 10:41:38;;;;;;;7.10;6.50;;;;;;;30.04;44.43;100034.07;130100;1271;108760;-78
2022/07/23 10:44:47;;;;;;;7.60;6.90;;;;;;;30.03;43.96;100033.38;130429;1271;108840;-76
2022/07/23 10:47:52;;;;;;;8.10;7.20;;;;;;;30.05;44.35;100026.41;130000;1273;108765;-76
2022/07/23 10:51:13;;;;;;;7.30;6.70;;;;;;;30.10;43.88;100019.27;130164;1271;107356;-73
2022/07/23 10:54:24;;;;;;;8.10;7.20;;;;;;;30.15;44.06;100022.09;130314;1268;109039;-71
2022/07/23 10:57:30;;;;;;;7.50;6.90;;;;;;;30.19;44.11;100020.95;130225;1268;108743;-74
2022/07/23 11:00:37;;;;;;;8.60;7.70;;;;;;;30.26;42.19;100021.33;130296;1268;108801;-73
2022/07/23 11:03:56;;;;;;;7.90;7.10;;;;;;;30.25;42.71;100015.94;130443;1268;106978;-73
2022/07/23 11:07:12;;;;;;;8.90;7.30;;;;;;;30.35;42.12;100013.95;130266;1270;108079;-73
2022/07/23 11:10:36;;;;;;;7.40;6.70;;;;;;;30.44;42.85;100010.77;130219;1268;109041;-74
2022/07/23 11:13:51;;;;;;;7.80;7.00;;;;;;;30.62;42.59;100004.56;130120;1271;107712;-72
2022/07/23 11:16:57;;;;;;;7.60;7.00;;;;;;;30.80;43.01;100000.88;130325;1268;108755;-73
2022/07/23 11:20:20;;;;;;;7.50;6.90;;;;;;;31.03;42.79;99996.05;130293;1268;109002;-72
2022/07/23 11:24:01;;;;;;;7.50;6.70;;;;;;;31.24;42.33;99997.46;130399;1268;108756;-74
2022/07/23 11:27:07;;;;;;;7.20;6.60;;;;;;;31.33;42.04;99990.73;130295;1268;108424;-72
2022/07/23 11:30:43;;;;;;;7.90;7.10;;;;;;;31.32;42.33;99989.14;130204;1268;108589;-71
2022/07/23 11:34:08;;;;;;;7.80;7.10;;;;;;;31.35;41.56;99986.67;130177;1268;108739;-75
2022/07/23 11:37:27;;;;;;;7.00;6.40;;;;;;;31.36;41.56;99985.11;130141;1269;108869;-71
2022/07/23 11:40:33;;;;;;;7.50;6.80;;;;;;;31.44;42.04;99984.77;130326;1268;108655;-73
2022/07/23 11:43:40;;;;;;;7.50;6.90;;;;;;;31.57;41.69;99978.86;130337;1268;108948;-72
2022/07/23 11:46:57;;;;;;;7.60;6.90;;;;;;;31.77;40.89;99979.25;130544;1268;108807;-72
2022/07/23 11:50:06;;;;;;;8.30;6.80;;;;;;;31.83;39.54;99975.95;130360;1268;108861;-72
2022/07/23 11:53:11;;;;;;;7.60;6.90;;;;;;;31.75;39.26;99972.71;130430;1268;108689;-72
2022/07/23 11:56:17;;;;;;;7.30;6.70;;;;;;;31.60;39.22;99963.47;130353;1268;108742;-73
2022/07/23 11:59:23;;;;;;;7.20;6.50;;;;;;;31.54;39.77;99953.87;130216;1271;108724;-72
2022/07/23 12:02:29;;;;;;;8.00;7.20;;;;;;;31.57;39.61;99951.33;130296;1268;107071;-74
2022/07/23 12:05:36;;;;;;;7.60;6.90;;;;;;;31.55;39.10;99942.50;130411;1268;109091;-76
2022/07/23 12:08:44;;;;;;;8.00;7.20;;;;;;;31.61;40.04;99938.91;130334;1268;108887;-74
2022/07/23 12:12:03;;;;;;;7.40;6.70;;;;;;;31.74;38.60;99926.77;130545;1268;108715;-72
2022/07/23 12:15:11;;;;;;;7.60;6.90;;;;;;;31.80;39.04;99920.11;130203;1271;108798;-70
2022/07/23 12:18:18;;;;;;;7.20;6.60;;;;;;;31.94;38.33;99916.60;130481;1268;108801;-72
2022/07/23 12:21:23;;;;;;;7.30;6.60;;;;;;;31.99;38.16;99910.10;130106;1271;108992;-71
2022/07/23 12:24:28;;;;;;;7.20;6.50;;;;;;;32.00;38.88;99900.76;130130;1268;108978;-77
2022/07/23 12:27:35;;;;;;;7.30;6.70;;;;;;;32.05;38.95;99897.04;130310;1268;108807;-71
2022/07/23 12:30:43;;;;;;;7.10;6.40;;;;;;;32.06;38.78;99890.84;130085;1271;108572;-71
2022/07/23 12:33:50;;;;;;;6.80;6.20;;;;;;;32.10;38.62;99885.20;130323;1268;108863;-77
2022/07/23 12:36:56;;;;;;;9.60;6.90;;;;;;;32.17;38.56;99879.98;130240;1268;108549;-74
2022/07/23 12:40:22;;;;;;;7.10;6.40;;;;;;;32.17;38.22;99880.31;130364;1268;109131;-72
2022/07/23 12:43:28;;;;;;;7.10;6.50;;;;;;;32.10;38.38;99882.55;130240;1271;108890;-71
2022/07/23 12:46:36;;;;;;;7.50;6.80;;;;;;;32.08;38.38;99889.88;130136;1270;108946;-69
2022/07/23 12:49:41;;;;;;;7.10;6.50;;;;;;;32.08;38.30;99894.45;130106;1270;109594;-71
2022/07/23 12:52:46;;;;;;;8.00;7.10;;;;;;;32.09;38.30;99893.06;130210;1268;108645;-70
2022/07/23 12:55:58;;;;;;;7.50;6.80;;;;;;;32.08;38.29;99881.04;130143;1268;108992;-69
2022/07/23 12:59:10;;;;;;;7.00;6.20;;;;;;;32.06;38.06;99874.38;130146;1271;108724;-69
2022/07/23 13:02:16;;;;;;;7.60;6.90;;;;;;;32.05;38.12;99870.55;130283;1268;107760;-69
2022/07/23 13:05:21;;;;;;;7.30;6.60;;;;;;;32.04;38.01;99866.92;130102;1271;107338;-71
2022/07/23 13:08:28;;;;;;;8.80;6.90;;;;;;;32.02;38.10;99860.11;130189;1271;108676;-68
2022/07/23 13:11:34;;;;;;;7.50;6.30;;;;;;;32.03;37.82;99865.94;130169;1268;108770;-70
2022/07/23 13:14:39;;;;;;;6.90;6.30;;;;;;;32.02;38.11;99863.71;130181;1271;108842;-70
2022/07/23 13:17:45;;;;;;;8.40;7.60;;;;;;;32.00;37.85;99861.63;130070;1271;109707;-69
2022/07/23 13:20:51;;;;;;;9.30;8.40;;;;;;;31.92;37.80;99860.18;130075;1269;108830;-70
2022/07/23 13:23:57;;;;;;;8.20;7.40;;;;;;;31.76;38.07;99868.16;129961;1270;107660;-70
2022/07/23 13:27:03;;;;;;;7.10;6.50;;;;;;;31.55;38.30;99878.45;130021;1271;108867;-71
2022/07/23 13:30:11;;;;;;;8.40;7.40;;;;;;;31.31;38.13;99884.68;130109;1272;107467;-71
2022/07/23 13:33:17;;;;;;;8.10;7.40;;;;;;;31.02;38.39;99908.27;130126;1271;107723;-71
2022/07/23 13:36:23;;;;;;;10.80;4.30;;;;;;;30.50;39.27;99996.74;130183;1270;107426;-71
2022/07/23 13:39:28;;;;;;;10.60;3.00;;;;;;;29.05;41.78;100037.86;130305;1268;108759;-72
2022/07/23 13:42:34;;;;;;;10.80;2.80;;;;;;;27.79;44.38;100045.46;130353;1269;108748;-72
2022/07/23 13:45:41;;;;;;;11.20;2.70;;;;;;;26.75;48.76;100059.14;130064;1271;108607;-70
2022/07/23 13:48:47;;;;;;;7.20;2.60;;;;;;;25.54;52.82;100088.67;130188;1271;108729;-72
2022/07/23 13:51:52;;;;;;;7.30;3.40;;;;;;;23.96;60.95;100127.65;130479;1271;107693;-70
2022/07/23 13:54:57;;;;;;;9.60;3.60;;;;;;;22.77;62.33;100136.52;130166;1271;109434;-70
2022/07/23 13:58:03;;;;;;;7.90;3.10;;;;;;;21.67;70.46;100153.31;130374;1268;108776;-70
2022/07/23 14:01:09;;;;;;;5.40;3.00;;;;;;;20.59;73.84;100166.42;130326;1268;108645;-72
2022/07/23 14:04:14;;;;;;;5.50;3.60;;;;;;;20.04;78.35;100177.80;130179;1268;107997;-71
2022/07/23 14:07:20;;;;;;;5.30;4.00;;;;;;;19.66;80.73;100153.80;130087;1268;108551;-69